AUA995F LOWW-EKCH
Flight info
| Callsign | AUA995F |
|---|---|
| Flight time | 1h 11m |
| Altitude | 34000 |
| Route | LANUX2C LANUX DCT VLM DCT HDO DCT BAKDO DCT KOSEB T298 MONAK MONAK5C |
| Aircraft | A320/M-SDE2E3FGHIJ1RWXY/LB1 |
Departure
| Time | 2026-05-07 13:33 |
|---|---|
| Airport | Vienna International Airport (LOWW) |
Arrival
| Time | 2026-05-07 14:45 |
|---|---|
| Airport | Copenhagen Kastrup Airport (EKCH) |
| Time | Latitude | Longitude | Altitude | Speed | Heading |
|---|---|---|---|---|---|
| 2026-05-07 12:48 | 48.11879 | 16.56822 | 609 ft | 0 kts | 206° |
| 2026-05-07 13:25 | 48.11885 | 16.56826 | 609 ft | 2 kts | 205° |
| 2026-05-07 13:25 | 48.11904 | 16.56838 | 620 ft | 3 kts | 199° |
| 2026-05-07 13:25 | 48.11923 | 16.56847 | 615 ft | 3 kts | 188° |
| 2026-05-07 13:26 | 48.11942 | 16.56848 | 618 ft | 3 kts | 159° |
| 2026-05-07 13:26 | 48.11954 | 16.56838 | 622 ft | 1 kts | 117° |
| 2026-05-07 13:26 | 48.11955 | 16.56836 | 622 ft | 0 kts | 116° |
| 2026-05-07 13:29 | 48.11950 | 16.56849 | 612 ft | 2 kts | 116° |
| 2026-05-07 13:29 | 48.11936 | 16.56892 | 616 ft | 7 kts | 116° |
| 2026-05-07 13:29 | 48.11908 | 16.56979 | 613 ft | 10 kts | 116° |
| 2026-05-07 13:30 | 48.11879 | 16.57065 | 612 ft | 10 kts | 116° |
| 2026-05-07 13:30 | 48.11855 | 16.57183 | 609 ft | 12 kts | 89° |
| 2026-05-07 13:30 | 48.11830 | 16.57290 | 618 ft | 10 kts | 117° |
| 2026-05-07 13:30 | 48.11770 | 16.57361 | 609 ft | 14 kts | 165° |
| 2026-05-07 13:31 | 48.11661 | 16.57407 | 614 ft | 17 kts | 164° |
| 2026-05-07 13:31 | 48.11540 | 16.57459 | 612 ft | 19 kts | 166° |
| 2026-05-07 13:31 | 48.11425 | 16.57412 | 614 ft | 18 kts | 206° |
| 2026-05-07 13:31 | 48.11308 | 16.57328 | 613 ft | 19 kts | 206° |
| 2026-05-07 13:32 | 48.11184 | 16.57238 | 609 ft | 19 kts | 206° |
| 2026-05-07 13:32 | 48.11091 | 16.57170 | 609 ft | 13 kts | 206° |
| 2026-05-07 13:32 | 48.11049 | 16.57129 | 615 ft | 3 kts | 249° |
| 2026-05-07 13:32 | 48.11056 | 16.57100 | 612 ft | 5 kts | 295° |
| 2026-05-07 13:33 | 48.11159 | 16.56783 | 622 ft | 70 kts | 295° |
| 2026-05-07 13:33 | 48.11466 | 16.55833 | 622 ft | 130 kts | 295° |
| 2026-05-07 13:33 | 48.11931 | 16.54406 | 685 ft | 168 kts | 296° |
| 2026-05-07 13:33 | 48.12379 | 16.52850 | 1446 ft | 163 kts | 275° |
| 2026-05-07 13:34 | 48.12276 | 16.51087 | 1850 ft | 182 kts | 256° |
| 2026-05-07 13:34 | 48.11760 | 16.46866 | 2630 ft | 231 kts | 269° |
| 2026-05-07 13:34 | 48.11905 | 16.44380 | 3179 ft | 255 kts | 275° |
| 2026-05-07 13:35 | 48.12147 | 16.41672 | 4084 ft | 262 kts | 277° |
| 2026-05-07 13:35 | 48.12420 | 16.38996 | 5048 ft | 265 kts | 278° |
| 2026-05-07 13:35 | 48.12712 | 16.36270 | 6004 ft | 267 kts | 278° |
| 2026-05-07 13:35 | 48.13012 | 16.33466 | 6973 ft | 270 kts | 278° |
| 2026-05-07 13:36 | 48.13305 | 16.30714 | 7873 ft | 272 kts | 278° |
| 2026-05-07 13:36 | 48.13605 | 16.27865 | 8815 ft | 275 kts | 277° |
| 2026-05-07 13:36 | 48.13920 | 16.25023 | 9686 ft | 279 kts | 282° |
| 2026-05-07 13:36 | 48.14630 | 16.22296 | 10473 ft | 285 kts | 298° |
| 2026-05-07 13:37 | 48.15857 | 16.19951 | 11050 ft | 300 kts | 315° |
| 2026-05-07 13:37 | 48.17683 | 16.18110 | 11301 ft | 327 kts | 332° |
| 2026-05-07 13:37 | 48.19806 | 16.16562 | 11567 ft | 348 kts | 332° |
| 2026-05-07 13:37 | 48.22010 | 16.14961 | 12169 ft | 355 kts | 332° |
| 2026-05-07 13:38 | 48.24249 | 16.13327 | 12870 ft | 360 kts | 331° |
| 2026-05-07 13:38 | 48.26514 | 16.11661 | 13581 ft | 365 kts | 331° |
| 2026-05-07 13:38 | 48.28777 | 16.09984 | 14223 ft | 369 kts | 330° |
| 2026-05-07 13:38 | 48.31090 | 16.08267 | 14848 ft | 374 kts | 330° |
| 2026-05-07 13:39 | 48.33438 | 16.06523 | 15461 ft | 378 kts | 330° |
| 2026-05-07 13:39 | 48.35808 | 16.04758 | 16032 ft | 383 kts | 330° |
| 2026-05-07 13:39 | 48.38209 | 16.02964 | 16651 ft | 387 kts | 330° |
| 2026-05-07 13:39 | 48.40643 | 16.01143 | 17245 ft | 392 kts | 329° |
| 2026-05-07 13:40 | 48.43094 | 15.99310 | 17831 ft | 396 kts | 329° |
| 2026-05-07 13:40 | 48.45576 | 15.97457 | 18396 ft | 400 kts | 329° |
| 2026-05-07 13:40 | 48.48088 | 15.95582 | 18875 ft | 404 kts | 329° |
| 2026-05-07 13:40 | 48.50619 | 15.93685 | 19342 ft | 408 kts | 329° |
| 2026-05-07 13:41 | 48.53172 | 15.91766 | 19816 ft | 412 kts | 329° |
| 2026-05-07 13:41 | 48.55753 | 15.89829 | 20295 ft | 416 kts | 329° |
| 2026-05-07 13:41 | 48.58340 | 15.87847 | 20787 ft | 419 kts | 328° |
| 2026-05-07 13:41 | 48.60919 | 15.85734 | 21244 ft | 422 kts | 326° |
| 2026-05-07 13:42 | 48.63483 | 15.83531 | 21687 ft | 426 kts | 325° |
| 2026-05-07 13:42 | 48.66061 | 15.81266 | 22139 ft | 430 kts | 324° |
| 2026-05-07 13:42 | 48.68649 | 15.78982 | 22581 ft | 434 kts | 325° |
| 2026-05-07 13:42 | 48.71273 | 15.76681 | 23019 ft | 438 kts | 325° |
| 2026-05-07 13:43 | 48.73935 | 15.74367 | 23444 ft | 442 kts | 325° |
| 2026-05-07 13:43 | 48.76618 | 15.72056 | 23811 ft | 446 kts | 325° |
| 2026-05-07 13:43 | 48.79331 | 15.69730 | 24189 ft | 449 kts | 325° |
| 2026-05-07 13:43 | 48.82054 | 15.67393 | 24575 ft | 451 kts | 325° |
| 2026-05-07 13:44 | 48.84785 | 15.65045 | 24940 ft | 453 kts | 325° |
| 2026-05-07 13:44 | 48.87543 | 15.62681 | 25316 ft | 456 kts | 326° |
| 2026-05-07 13:44 | 48.90421 | 15.60557 | 25686 ft | 462 kts | 332° |
| 2026-05-07 13:44 | 48.93416 | 15.58735 | 26058 ft | 467 kts | 335° |
| 2026-05-07 13:45 | 48.96490 | 15.57087 | 26415 ft | 470 kts | 336° |
| 2026-05-07 13:45 | 48.99602 | 15.55490 | 26759 ft | 473 kts | 336° |
| 2026-05-07 13:45 | 49.02721 | 15.53856 | 27128 ft | 475 kts | 336° |
| 2026-05-07 13:45 | 49.05832 | 15.52147 | 27464 ft | 477 kts | 335° |
| 2026-05-07 13:46 | 49.08942 | 15.50358 | 27800 ft | 479 kts | 334° |
| 2026-05-07 13:46 | 49.12049 | 15.48515 | 28118 ft | 481 kts | 333° |
| 2026-05-07 13:46 | 49.15172 | 15.46635 | 28428 ft | 483 kts | 333° |
| 2026-05-07 13:46 | 49.18312 | 15.44739 | 28727 ft | 486 kts | 333° |
| 2026-05-07 13:47 | 49.21468 | 15.42841 | 29022 ft | 489 kts | 333° |
| 2026-05-07 13:47 | 49.24644 | 15.40944 | 29305 ft | 491 kts | 334° |
| 2026-05-07 13:47 | 49.27829 | 15.39057 | 29597 ft | 494 kts | 334° |
| 2026-05-07 13:47 | 49.31047 | 15.37159 | 29896 ft | 495 kts | 334° |
| 2026-05-07 13:48 | 49.34268 | 15.35263 | 30262 ft | 495 kts | 334° |
| 2026-05-07 13:48 | 49.37477 | 15.33372 | 30637 ft | 494 kts | 334° |
| 2026-05-07 13:48 | 49.40675 | 15.31481 | 31014 ft | 492 kts | 334° |
| 2026-05-07 13:48 | 49.43868 | 15.29583 | 31401 ft | 491 kts | 334° |
| 2026-05-07 13:49 | 49.47046 | 15.27686 | 31795 ft | 489 kts | 334° |
| 2026-05-07 13:49 | 49.50214 | 15.25792 | 32193 ft | 487 kts | 334° |
| 2026-05-07 13:49 | 49.53358 | 15.23911 | 32579 ft | 486 kts | 334° |
| 2026-05-07 13:49 | 49.56468 | 15.22045 | 32969 ft | 484 kts | 334° |
| 2026-05-07 13:50 | 49.59637 | 15.20140 | 33366 ft | 482 kts | 334° |
| 2026-05-07 13:50 | 49.62757 | 15.18261 | 33764 ft | 481 kts | 335° |
| 2026-05-07 13:50 | 49.65868 | 15.16387 | 34127 ft | 479 kts | 335° |
| 2026-05-07 13:50 | 49.68927 | 15.14542 | 34436 ft | 478 kts | 335° |
| 2026-05-07 13:51 | 49.72025 | 15.12671 | 34746 ft | 477 kts | 335° |
| 2026-05-07 13:51 | 49.74098 | 15.11415 | 34939 ft | 477 kts | 335° |
| 2026-05-07 13:51 | 49.77184 | 15.09537 | 35221 ft | 476 kts | 335° |
| 2026-05-07 13:51 | 49.80267 | 15.07648 | 35497 ft | 475 kts | 335° |
| 2026-05-07 13:52 | 49.84333 | 15.05141 | 35841 ft | 475 kts | 335° |
| 2026-05-07 13:52 | 49.89468 | 15.01977 | 35963 ft | 475 kts | 335° |
| 2026-05-07 13:53 | 49.95633 | 14.98187 | 35962 ft | 475 kts | 335° |
| 2026-05-07 13:53 | 50.01772 | 14.94399 | 35965 ft | 475 kts | 335° |
| 2026-05-07 13:54 | 50.07909 | 14.90590 | 35966 ft | 475 kts | 335° |
| 2026-05-07 13:54 | 50.14058 | 14.86763 | 35968 ft | 475 kts | 335° |
| 2026-05-07 13:55 | 50.20198 | 14.82943 | 35971 ft | 475 kts | 335° |
| 2026-05-07 13:55 | 50.26344 | 14.79111 | 35976 ft | 475 kts | 335° |
| 2026-05-07 13:56 | 50.32493 | 14.75268 | 35976 ft | 476 kts | 335° |
| 2026-05-07 13:56 | 50.38637 | 14.71403 | 35977 ft | 476 kts | 335° |
| 2026-05-07 13:57 | 50.44755 | 14.67540 | 35975 ft | 476 kts | 335° |
| 2026-05-07 13:57 | 50.50894 | 14.63664 | 35972 ft | 476 kts | 335° |
| 2026-05-07 13:58 | 50.57033 | 14.59781 | 35974 ft | 476 kts | 335° |
| 2026-05-07 13:58 | 50.63174 | 14.55882 | 35969 ft | 476 kts | 335° |
| 2026-05-07 13:59 | 50.69313 | 14.51964 | 35978 ft | 476 kts | 335° |
| 2026-05-07 13:59 | 50.75453 | 14.48033 | 35981 ft | 475 kts | 335° |
| 2026-05-07 14:00 | 50.81569 | 14.44114 | 35987 ft | 475 kts | 335° |
| 2026-05-07 14:00 | 50.87750 | 14.40406 | 35987 ft | 477 kts | 344° |
| 2026-05-07 14:01 | 50.94256 | 14.38027 | 35995 ft | 477 kts | 345° |
| 2026-05-07 14:01 | 51.00675 | 14.35687 | 36004 ft | 476 kts | 345° |
| 2026-05-07 14:02 | 51.07127 | 14.33325 | 36008 ft | 475 kts | 345° |
| 2026-05-07 14:02 | 51.13580 | 14.30951 | 36015 ft | 475 kts | 345° |
| 2026-05-07 14:03 | 51.20025 | 14.28584 | 36014 ft | 475 kts | 345° |
| 2026-05-07 14:03 | 51.26459 | 14.26208 | 36007 ft | 474 kts | 345° |
| 2026-05-07 14:04 | 51.32891 | 14.23820 | 36011 ft | 474 kts | 345° |
| 2026-05-07 14:04 | 51.39311 | 14.21445 | 36009 ft | 474 kts | 345° |
| 2026-05-07 14:05 | 51.45730 | 14.19057 | 36014 ft | 473 kts | 345° |
| 2026-05-07 14:05 | 51.52147 | 14.16661 | 36011 ft | 473 kts | 345° |
| 2026-05-07 14:06 | 51.58561 | 14.14255 | 36019 ft | 473 kts | 345° |
| 2026-05-07 14:06 | 51.64979 | 14.11842 | 36023 ft | 473 kts | 345° |
| 2026-05-07 14:07 | 51.71386 | 14.09427 | 36029 ft | 473 kts | 345° |
| 2026-05-07 14:07 | 51.77785 | 14.07008 | 36034 ft | 473 kts | 345° |
| 2026-05-07 14:08 | 51.84203 | 14.04577 | 36036 ft | 472 kts | 345° |
| 2026-05-07 14:08 | 51.90604 | 14.02145 | 36041 ft | 472 kts | 345° |
| 2026-05-07 14:09 | 51.96996 | 13.99707 | 36045 ft | 472 kts | 345° |
| 2026-05-07 14:09 | 52.03382 | 13.97260 | 36051 ft | 471 kts | 345° |
| 2026-05-07 14:10 | 52.09767 | 13.94812 | 36062 ft | 471 kts | 345° |
| 2026-05-07 14:10 | 52.16142 | 13.92365 | 36063 ft | 471 kts | 345° |
| 2026-05-07 14:11 | 52.22514 | 13.89917 | 36060 ft | 470 kts | 345° |
| 2026-05-07 14:11 | 52.28865 | 13.87461 | 36068 ft | 469 kts | 345° |
| 2026-05-07 14:12 | 52.35227 | 13.84990 | 36068 ft | 469 kts | 345° |
| 2026-05-07 14:12 | 52.41567 | 13.82512 | 36069 ft | 469 kts | 345° |
| 2026-05-07 14:13 | 52.47926 | 13.80031 | 36071 ft | 469 kts | 345° |
| 2026-05-07 14:13 | 52.54280 | 13.77556 | 36071 ft | 469 kts | 345° |
| 2026-05-07 14:14 | 52.60619 | 13.75072 | 36074 ft | 468 kts | 345° |
| 2026-05-07 14:14 | 52.66959 | 13.72573 | 36073 ft | 468 kts | 345° |
| 2026-05-07 14:15 | 52.73287 | 13.70069 | 36075 ft | 468 kts | 345° |
| 2026-05-07 14:15 | 52.79614 | 13.67554 | 36079 ft | 467 kts | 345° |
| 2026-05-07 14:16 | 52.85936 | 13.65031 | 36081 ft | 467 kts | 345° |
| 2026-05-07 14:16 | 52.92246 | 13.62526 | 36079 ft | 466 kts | 345° |
| 2026-05-07 14:17 | 52.98548 | 13.60031 | 36084 ft | 465 kts | 345° |
| 2026-05-07 14:17 | 53.04840 | 13.57503 | 36080 ft | 465 kts | 345° |
| 2026-05-07 14:18 | 53.11122 | 13.54962 | 36079 ft | 464 kts | 345° |
| 2026-05-07 14:18 | 53.17396 | 13.52418 | 36081 ft | 464 kts | 345° |
| 2026-05-07 14:19 | 53.23670 | 13.49890 | 36084 ft | 464 kts | 345° |
| 2026-05-07 14:19 | 53.29953 | 13.47338 | 36067 ft | 464 kts | 345° |
| 2026-05-07 14:20 | 53.36221 | 13.44788 | 36074 ft | 464 kts | 345° |
| 2026-05-07 14:20 | 53.42492 | 13.42251 | 36080 ft | 464 kts | 345° |
| 2026-05-07 14:21 | 53.48765 | 13.39675 | 36086 ft | 464 kts | 345° |
| 2026-05-07 14:21 | 53.55027 | 13.37089 | 36088 ft | 464 kts | 345° |
| 2026-05-07 14:22 | 53.61303 | 13.34505 | 36088 ft | 464 kts | 345° |
| 2026-05-07 14:22 | 53.67571 | 13.31921 | 36084 ft | 464 kts | 345° |
| 2026-05-07 14:23 | 53.73832 | 13.29324 | 36097 ft | 463 kts | 345° |
| 2026-05-07 14:23 | 53.80054 | 13.26738 | 36101 ft | 463 kts | 345° |
| 2026-05-07 14:24 | 53.86311 | 13.24133 | 36105 ft | 463 kts | 345° |
| 2026-05-07 14:24 | 53.92561 | 13.21523 | 36105 ft | 462 kts | 345° |
| 2026-05-07 14:24 | 53.95677 | 13.20219 | 35684 ft | 460 kts | 345° |
| 2026-05-07 14:25 | 53.98781 | 13.18916 | 35033 ft | 459 kts | 345° |
| 2026-05-07 14:25 | 54.01886 | 13.17609 | 34388 ft | 459 kts | 345° |
| 2026-05-07 14:25 | 54.04989 | 13.16299 | 33611 ft | 459 kts | 345° |
| 2026-05-07 14:25 | 54.08093 | 13.14987 | 32766 ft | 461 kts | 345° |
| 2026-05-07 14:26 | 54.11208 | 13.13668 | 31942 ft | 461 kts | 345° |
| 2026-05-07 14:26 | 54.14329 | 13.12343 | 31063 ft | 463 kts | 345° |
| 2026-05-07 14:26 | 54.17467 | 13.11010 | 30193 ft | 465 kts | 344° |
| 2026-05-07 14:26 | 54.20608 | 13.09677 | 29188 ft | 466 kts | 344° |
| 2026-05-07 14:27 | 54.23754 | 13.08345 | 28213 ft | 466 kts | 344° |
| 2026-05-07 14:27 | 54.26903 | 13.07012 | 27273 ft | 465 kts | 344° |
| 2026-05-07 14:27 | 54.30039 | 13.05679 | 26362 ft | 464 kts | 344° |
| 2026-05-07 14:27 | 54.33165 | 13.04344 | 25484 ft | 462 kts | 344° |
| 2026-05-07 14:28 | 54.36278 | 13.03012 | 24540 ft | 461 kts | 344° |
| 2026-05-07 14:28 | 54.39383 | 13.01680 | 23549 ft | 461 kts | 344° |
| 2026-05-07 14:28 | 54.42490 | 13.00340 | 22416 ft | 461 kts | 344° |
| 2026-05-07 14:28 | 54.45598 | 12.98995 | 21339 ft | 461 kts | 345° |
| 2026-05-07 14:29 | 54.48694 | 12.97658 | 20437 ft | 458 kts | 345° |
| 2026-05-07 14:29 | 54.51776 | 12.96331 | 19637 ft | 451 kts | 345° |
| 2026-05-07 14:29 | 54.54755 | 12.95047 | 18849 ft | 431 kts | 345° |
| 2026-05-07 14:29 | 54.57592 | 12.93821 | 18053 ft | 413 kts | 345° |
| 2026-05-07 14:30 | 54.60327 | 12.92641 | 17200 ft | 397 kts | 345° |
| 2026-05-07 14:30 | 54.62967 | 12.91493 | 16345 ft | 384 kts | 345° |
| 2026-05-07 14:30 | 54.65517 | 12.90340 | 15535 ft | 373 kts | 343° |
| 2026-05-07 14:30 | 54.67991 | 12.89013 | 14811 ft | 374 kts | 341° |
| 2026-05-07 14:31 | 54.70437 | 12.87543 | 14356 ft | 370 kts | 340° |
| 2026-05-07 14:31 | 54.72830 | 12.86041 | 14020 ft | 362 kts | 339° |
| 2026-05-07 14:31 | 54.75177 | 12.84571 | 13665 ft | 355 kts | 340° |
| 2026-05-07 14:31 | 54.76713 | 12.83619 | 13406 ft | 351 kts | 340° |
| 2026-05-07 14:32 | 54.79021 | 12.82207 | 13026 ft | 344 kts | 340° |
| 2026-05-07 14:32 | 54.81262 | 12.80858 | 12657 ft | 338 kts | 340° |
| 2026-05-07 14:32 | 54.83469 | 12.79537 | 12292 ft | 333 kts | 340° |
| 2026-05-07 14:32 | 54.85617 | 12.78253 | 11936 ft | 328 kts | 340° |
| 2026-05-07 14:33 | 54.87759 | 12.76970 | 11576 ft | 323 kts | 341° |
| 2026-05-07 14:33 | 54.89875 | 12.75707 | 11226 ft | 319 kts | 341° |
| 2026-05-07 14:33 | 54.91961 | 12.74461 | 10874 ft | 315 kts | 341° |
| 2026-05-07 14:33 | 54.94020 | 12.73228 | 10530 ft | 312 kts | 341° |
| 2026-05-07 14:34 | 54.96060 | 12.72004 | 10190 ft | 308 kts | 341° |
| 2026-05-07 14:34 | 54.98079 | 12.70788 | 9834 ft | 305 kts | 341° |
| 2026-05-07 14:34 | 55.00067 | 12.69588 | 9454 ft | 302 kts | 341° |
| 2026-05-07 14:34 | 55.02045 | 12.68395 | 9079 ft | 298 kts | 341° |
| 2026-05-07 14:35 | 55.03994 | 12.67216 | 8708 ft | 295 kts | 341° |
| 2026-05-07 14:35 | 55.05922 | 12.66045 | 8339 ft | 291 kts | 341° |
| 2026-05-07 14:35 | 55.07829 | 12.64887 | 7977 ft | 288 kts | 341° |
| 2026-05-07 14:35 | 55.09707 | 12.63750 | 7617 ft | 285 kts | 341° |
| 2026-05-07 14:36 | 55.11553 | 12.62631 | 7267 ft | 281 kts | 342° |
| 2026-05-07 14:36 | 55.13411 | 12.61504 | 6910 ft | 278 kts | 342° |
| 2026-05-07 14:36 | 55.15228 | 12.60399 | 6567 ft | 275 kts | 342° |
| 2026-05-07 14:36 | 55.17025 | 12.59306 | 6209 ft | 271 kts | 342° |
| 2026-05-07 14:37 | 55.18787 | 12.58249 | 5882 ft | 265 kts | 345° |
| 2026-05-07 14:37 | 55.22339 | 12.56965 | 5267 ft | 257 kts | 350° |
| 2026-05-07 14:37 | 55.24078 | 12.56412 | 4962 ft | 256 kts | 350° |
| 2026-05-07 14:38 | 55.25826 | 12.55864 | 4648 ft | 254 kts | 350° |
| 2026-05-07 14:38 | 55.27565 | 12.55319 | 4331 ft | 254 kts | 350° |
| 2026-05-07 14:38 | 55.29296 | 12.54779 | 4018 ft | 253 kts | 350° |
| 2026-05-07 14:38 | 55.31029 | 12.54242 | 3752 ft | 252 kts | 350° |
| 2026-05-07 14:39 | 55.32756 | 12.53710 | 3555 ft | 252 kts | 350° |
| 2026-05-07 14:39 | 55.34476 | 12.53183 | 3433 ft | 252 kts | 350° |
| 2026-05-07 14:39 | 55.36205 | 12.52650 | 3299 ft | 252 kts | 350° |
| 2026-05-07 14:39 | 55.37924 | 12.52123 | 3169 ft | 251 kts | 350° |
| 2026-05-07 14:40 | 55.39645 | 12.51592 | 3038 ft | 251 kts | 350° |
| 2026-05-07 14:40 | 55.41364 | 12.51062 | 2911 ft | 251 kts | 350° |
| 2026-05-07 14:40 | 55.43089 | 12.50535 | 2779 ft | 250 kts | 350° |
| 2026-05-07 14:40 | 55.44793 | 12.50015 | 2647 ft | 244 kts | 350° |
| 2026-05-07 14:41 | 55.46426 | 12.49513 | 2517 ft | 233 kts | 350° |
| 2026-05-07 14:41 | 55.47995 | 12.49027 | 2394 ft | 224 kts | 350° |
| 2026-05-07 14:41 | 55.49503 | 12.48568 | 2262 ft | 217 kts | 353° |
| 2026-05-07 14:41 | 55.50972 | 12.48684 | 2082 ft | 207 kts | 14° |
| 2026-05-07 14:42 | 55.52249 | 12.49676 | 1867 ft | 197 kts | 34° |
| 2026-05-07 14:42 | 55.53277 | 12.51204 | 1649 ft | 190 kts | 40° |
| 2026-05-07 14:42 | 55.54245 | 12.52691 | 1382 ft | 178 kts | 39° |
| 2026-05-07 14:42 | 55.55132 | 12.54056 | 1153 ft | 159 kts | 40° |
| 2026-05-07 14:43 | 55.55926 | 12.55278 | 928 ft | 144 kts | 39° |
| 2026-05-07 14:43 | 55.56662 | 12.56411 | 734 ft | 137 kts | 39° |
| 2026-05-07 14:43 | 55.57380 | 12.57516 | 543 ft | 137 kts | 40° |
| 2026-05-07 14:43 | 55.58101 | 12.58617 | 364 ft | 136 kts | 39° |
| 2026-05-07 14:44 | 55.58799 | 12.59702 | 178 ft | 130 kts | 40° |
| 2026-05-07 14:44 | 55.59469 | 12.60731 | 30 ft | 122 kts | 39° |
| 2026-05-07 14:44 | 55.60017 | 12.61573 | 25 ft | 89 kts | 41° |
| 2026-05-07 14:44 | 55.60433 | 12.62223 | 26 ft | 72 kts | 41° |
| 2026-05-07 14:45 | 55.60771 | 12.62747 | 28 ft | 58 kts | 41° |
| 2026-05-07 14:45 | 55.61042 | 12.63168 | 27 ft | 43 kts | 41° |
| 2026-05-07 14:45 | 55.61185 | 12.63332 | 28 ft | 16 kts | 356° |
| 2026-05-07 14:45 | 55.61306 | 12.63316 | 24 ft | 19 kts | 355° |
| 2026-05-07 14:46 | 55.61419 | 12.63368 | 24 ft | 17 kts | 40° |
| 2026-05-07 14:46 | 55.61515 | 12.63519 | 25 ft | 20 kts | 41° |
| 2026-05-07 14:46 | 55.61629 | 12.63693 | 24 ft | 23 kts | 40° |
| 2026-05-07 14:46 | 55.61754 | 12.63885 | 24 ft | 25 kts | 41° |
| 2026-05-07 14:47 | 55.61872 | 12.64066 | 24 ft | 20 kts | 37° |
| 2026-05-07 14:47 | 55.62004 | 12.64179 | 24 ft | 22 kts | 26° |
| 2026-05-07 14:47 | 55.62151 | 12.64306 | 23 ft | 25 kts | 25° |
| 2026-05-07 14:47 | 55.62270 | 12.64390 | 22 ft | 16 kts | 14° |
| 2026-05-07 14:48 | 55.62381 | 12.64443 | 24 ft | 17 kts | 15° |
| 2026-05-07 14:48 | 55.62472 | 12.64485 | 24 ft | 10 kts | 7° |
| 2026-05-07 14:48 | 55.62526 | 12.64404 | 26 ft | 11 kts | 304° |
| 2026-05-07 14:48 | 55.62574 | 12.64275 | 24 ft | 14 kts | 303° |
| 2026-05-07 14:49 | 55.62630 | 12.64122 | 24 ft | 16 kts | 302° |
| 2026-05-07 14:49 | 55.62676 | 12.63998 | 24 ft | 8 kts | 303° |
| 2026-05-07 14:49 | 55.62711 | 12.64001 | 24 ft | 6 kts | 31° |
| 2026-05-07 14:49 | 55.62738 | 12.64033 | 24 ft | 2 kts | 33° |
| 2026-05-07 14:50 | 55.62741 | 12.64036 | 24 ft | 0 kts | 33° |